Time;durP1;ratioP1;P1;durP2;ratioP2;P2;SDS_P1;SDS_P2;PMS_P1;PMS_P2;Temp;Humidity;BMP_temperature;BMP_pressure;BME280_temperature;BME280_humidity;BME280_pressure;Samples;Min_cycle;Max_cycle;Signal;HPM_P1;HPM_P2
2022/07/26 00:00:38;;;;;;;3.78;1.77;;;;;;;;;;5030943;28;20045;-61
2022/07/26 00:03:24;;;;;;;5.40;2.40;;;;;;;;;;5028573;28;20017;-61
2022/07/26 00:06:09;;;;;;;3.85;2.08;;;;;;;;;;5014876;28;20030;-63
2022/07/26 00:08:55;;;;;;;4.35;2.40;;;;;;;;;;5021794;28;20211;-75
2022/07/26 00:11:41;;;;;;;4.43;1.85;;;;;;;;;;5026199;28;20034;-67
2022/07/26 00:14:26;;;;;;;5.05;2.50;;;;;;;;;;5027364;28;20245;-62
2022/07/26 00:17:12;;;;;;;4.13;2.13;;;;;;;;;;5037783;28;20033;-63
2022/07/26 00:19:57;;;;;;;3.53;1.92;;;;;;;;;;5026401;28;20041;-61
2022/07/26 00:22:43;;;;;;;3.78;1.95;;;;;;;;;;5022218;28;20068;-61
2022/07/26 00:25:29;;;;;;;3.03;1.63;;;;;;;;;;5023026;28;20052;-62
2022/07/26 00:28:14;;;;;;;4.43;1.98;;;;;;;;;;5029527;28;20527;-62
2022/07/26 00:31:00;;;;;;;7.25;2.03;;;;;;;;;;5030572;28;20048;-76
2022/07/26 00:33:46;;;;;;;4.28;2.25;;;;;;;;;;4995512;28;20036;-78
2022/07/26 00:36:31;;;;;;;7.38;2.47;;;;;;;;;;5029060;28;20492;-75
2022/07/26 00:39:17;;;;;;;4.30;2.55;;;;;;;;;;5023212;28;20460;-75
2022/07/26 00:42:02;;;;;;;4.90;2.13;;;;;;;;;;5021941;28;20504;-74
2022/07/26 00:44:48;;;;;;;3.05;1.88;;;;;;;;;;5037117;28;20021;-74
2022/07/26 00:47:34;;;;;;;4.55;2.17;;;;;;;;;;5026482;28;20038;-64
2022/07/26 00:50:20;;;;;;;6.25;2.00;;;;;;;;;;5024006;28;20072;-75
2022/07/26 00:53:05;;;;;;;7.03;2.15;;;;;;;;;;5034448;28;20044;-74
2022/07/26 00:55:51;;;;;;;3.25;1.77;;;;;;;;;;5034291;28;20029;-74
2022/07/26 00:58:37;;;;;;;5.00;1.83;;;;;;;;;;5035354;28;20052;-76
2022/07/26 01:01:23;;;;;;;4.88;1.63;;;;;;;;;;5012325;28;20018;-76
2022/07/26 01:04:08;;;;;;;4.55;2.60;;;;;;;;;;5026027;28;20039;-72
2022/07/26 01:06:54;;;;;;;4.78;1.95;;;;;;;;;;5031223;28;20481;-66
2022/07/26 01:09:40;;;;;;;5.10;1.85;;;;;;;;;;5022824;28;20380;-66
2022/07/26 01:12:26;;;;;;;4.40;2.22;;;;;;;;;;5034380;28;20025;-65
2022/07/26 01:15:13;;;;;;;2.92;1.75;;;;;;;;;;5008577;28;20025;-66
2022/07/26 01:17:58;;;;;;;3.40;1.42;;;;;;;;;;5034387;28;20338;-67
2022/07/26 01:20:44;;;;;;;5.28;1.70;;;;;;;;;;5036594;28;20024;-67
2022/07/26 01:23:30;;;;;;;3.20;1.42;;;;;;;;;;5030201;28;20201;-72
2022/07/26 01:26:15;;;;;;;5.43;1.50;;;;;;;;;;5035774;28;20359;-75
2022/07/26 01:29:01;;;;;;;2.15;1.23;;;;;;;;;;5033692;28;20100;-73
2022/07/26 01:31:47;;;;;;;4.45;2.50;;;;;;;;;;5035558;28;20134;-74
2022/07/26 01:34:33;;;;;;;1.52;1.33;;;;;;;;;;5034347;28;20028;-72
2022/07/26 01:37:18;;;;;;;2.47;1.08;;;;;;;;;;5033217;28;20112;-74
2022/07/26 01:40:04;;;;;;;2.63;1.80;;;;;;;;;;5017512;28;20022;-78
2022/07/26 01:42:50;;;;;;;1.90;1.35;;;;;;;;;;5027739;28;20549;-76
2022/07/26 01:45:35;;;;;;;5.22;1.75;;;;;;;;;;5035059;28;20107;-73
2022/07/26 01:48:21;;;;;;;2.22;1.17;;;;;;;;;;5025837;28;20444;-72
2022/07/26 01:51:07;;;;;;;3.92;1.45;;;;;;;;;;5028685;28;20024;-74
2022/07/26 01:53:52;;;;;;;1.98;1.30;;;;;;;;;;5012530;28;20017;-71
2022/07/26 01:56:38;;;;;;;4.13;1.80;;;;;;;;;;5020741;28;20575;-71
2022/07/26 01:59:24;;;;;;;3.00;1.30;;;;;;;;;;5005619;28;20032;-75
2022/07/26 02:02:09;;;;;;;6.47;1.60;;;;;;;;;;4998046;28;20117;-61
2022/07/26 02:04:58;;;;;;;2.28;1.20;;;;;;;;;;4999905;28;20462;-63
2022/07/26 02:07:43;;;;;;;2.80;1.33;;;;;;;;;;4985190;28;20068;-62
2022/07/26 02:10:59;;;;;;;2.20;1.40;;;;;;;;;;4997668;28;20038;-63
2022/07/26 02:13:41;;;;;;;2.10;1.20;;;;;;;;;;4967087;28;20050;-63
2022/07/26 02:16:26;;;;;;;2.25;1.50;;;;;;;;;;5014861;28;20032;-68
2022/07/26 02:19:12;;;;;;;1.90;1.00;;;;;;;;;;5030451;28;20032;-66
2022/07/26 02:21:58;;;;;;;4.88;1.10;;;;;;;;;;5038242;28;20029;-70
2022/07/26 02:24:43;;;;;;;0.90;0.90;;;;;;;;;;5024132;28;20048;-70
2022/07/26 02:27:29;;;;;;;2.10;1.38;;;;;;;;;;5024414;28;20033;-70
2022/07/26 02:30:14;;;;;;;1.85;1.10;;;;;;;;;;5003482;28;20052;-69
2022/07/26 02:33:00;;;;;;;1.83;1.27;;;;;;;;;;5004784;28;20377;-69
2022/07/26 02:35:46;;;;;;;3.70;1.23;;;;;;;;;;5004967;28;20457;-70
2022/07/26 02:38:31;;;;;;;4.38;1.38;;;;;;;;;;5034278;28;22010;-66
2022/07/26 02:41:17;;;;;;;3.55;1.17;;;;;;;;;;5031966;28;20525;-67
2022/07/26 02:44:03;;;;;;;1.38;1.27;;;;;;;;;;5014510;28;20144;-66
2022/07/26 02:46:49;;;;;;;4.50;1.40;;;;;;;;;;5020074;28;20037;-66
2022/07/26 02:49:35;;;;;;;2.20;1.52;;;;;;;;;;5032528;28;20112;-66
2022/07/26 02:52:20;;;;;;;3.78;1.10;;;;;;;;;;5013372;28;20033;-66
2022/07/26 02:55:06;;;;;;;2.08;1.30;;;;;;;;;;5023576;28;20148;-65
2022/07/26 02:57:52;;;;;;;2.50;1.38;;;;;;;;;;5023027;28;20562;-65
2022/07/26 03:00:37;;;;;;;2.20;1.40;;;;;;;;;;5033187;28;20040;-66
2022/07/26 03:03:23;;;;;;;2.17;1.50;;;;;;;;;;5033049;28;20025;-66
2022/07/26 03:06:08;;;;;;;2.20;1.30;;;;;;;;;;5023155;28;20472;-65
2022/07/26 03:08:54;;;;;;;2.25;1.40;;;;;;;;;;5017961;28;20045;-65
2022/07/26 03:11:40;;;;;;;1.73;1.08;;;;;;;;;;5012637;28;20045;-66
2022/07/26 03:14:25;;;;;;;2.60;1.40;;;;;;;;;;5035595;28;20029;-68
2022/07/26 03:17:11;;;;;;;2.33;1.35;;;;;;;;;;5025020;28;20112;-68
2022/07/26 03:19:56;;;;;;;1.83;1.20;;;;;;;;;;5003082;28;20033;-67
2022/07/26 03:22:42;;;;;;;2.45;1.10;;;;;;;;;;5018120;28;20136;-67
2022/07/26 03:25:28;;;;;;;2.03;1.23;;;;;;;;;;5029292;28;20108;-66
2022/07/26 03:28:13;;;;;;;3.78;1.15;;;;;;;;;;5027321;28;20072;-67
2022/07/26 03:30:59;;;;;;;4.78;1.40;;;;;;;;;;5030599;28;20029;-67
2022/07/26 03:33:44;;;;;;;4.72;1.52;;;;;;;;;;5026226;28;20411;-62
2022/07/26 03:36:30;;;;;;;3.80;1.58;;;;;;;;;;5021985;28;20045;-66
2022/07/26 03:39:15;;;;;;;2.63;1.25;;;;;;;;;;5027430;28;20028;-65
2022/07/26 03:42:01;;;;;;;1.80;1.30;;;;;;;;;;5036437;28;20025;-66
2022/07/26 03:44:47;;;;;;;2.95;1.55;;;;;;;;;;5019856;28;20037;-66
2022/07/26 03:47:32;;;;;;;3.85;1.58;;;;;;;;;;5028527;28;20118;-64
2022/07/26 03:50:18;;;;;;;3.58;2.05;;;;;;;;;;5016748;28;20061;-70
2022/07/26 03:53:04;;;;;;;2.92;1.58;;;;;;;;;;5012920;28;20048;-70
2022/07/26 03:58:54;;;;;;;1.70;1.05;;;;;;;;;;5027526;28;20033;-71
2022/07/26 04:01:40;;;;;;;1.73;1.50;;;;;;;;;;5027152;28;20033;-70
2022/07/26 04:04:26;;;;;;;4.30;1.40;;;;;;;;;;5032386;28;20450;-70
2022/07/26 04:07:12;;;;;;;2.58;1.65;;;;;;;;;;5031404;28;20495;-71
2022/07/26 04:09:57;;;;;;;3.28;1.40;;;;;;;;;;4976594;28;20057;-70
2022/07/26 04:12:43;;;;;;;2.38;1.10;;;;;;;;;;5001015;28;20045;-68
2022/07/26 04:15:28;;;;;;;2.95;1.63;;;;;;;;;;5024141;28;20036;-70
2022/07/26 04:18:14;;;;;;;2.30;1.65;;;;;;;;;;5000657;28;20432;-69
2022/07/26 04:21:00;;;;;;;3.58;1.55;;;;;;;;;;5011710;28;20487;-68
2022/07/26 04:23:45;;;;;;;1.63;1.40;;;;;;;;;;5022462;28;20430;-69
2022/07/26 04:26:31;;;;;;;3.58;1.45;;;;;;;;;;5007728;28;20033;-61
2022/07/26 04:29:16;;;;;;;1.95;1.33;;;;;;;;;;5025504;28;20033;-75
2022/07/26 04:32:02;;;;;;;2.92;1.42;;;;;;;;;;5019237;28;20486;-60
2022/07/26 04:34:48;;;;;;;1.42;1.08;;;;;;;;;;5017672;28;20021;-61
2022/07/26 04:37:37;;;;;;;2.60;1.50;;;;;;;;;;5018704;28;20392;-60
2022/07/26 04:40:24;;;;;;;3.72;1.67;;;;;;;;;;4991271;28;20120;-61
2022/07/26 04:43:10;;;;;;;4.55;1.73;;;;;;;;;;4997781;28;20271;-63
2022/07/26 04:45:59;;;;;;;3.38;1.90;;;;;;;;;;5013785;28;20425;-68
2022/07/26 04:48:44;;;;;;;3.05;1.52;;;;;;;;;;5021838;28;20036;-65
2022/07/26 04:51:30;;;;;;;3.00;1.67;;;;;;;;;;5023642;28;20051;-66
2022/07/26 04:54:19;;;;;;;6.93;1.90;;;;;;;;;;5021271;28;20034;-66
2022/07/26 04:57:05;;;;;;;3.60;1.80;;;;;;;;;;5022730;28;20554;-66
2022/07/26 04:59:50;;;;;;;3.83;1.70;;;;;;;;;;5016336;28;20047;-66
2022/07/26 05:02:36;;;;;;;2.00;1.40;;;;;;;;;;5015928;28;20038;-66
2022/07/26 05:05:22;;;;;;;2.72;1.67;;;;;;;;;;5005012;28;20401;-63
2022/07/26 05:08:08;;;;;;;2.45;1.60;;;;;;;;;;5011740;28;20509;-62
2022/07/26 05:10:54;;;;;;;5.38;1.73;;;;;;;;;;4993533;28;20030;-62
2022/07/26 05:13:39;;;;;;;3.80;1.70;;;;;;;;;;5008088;28;20120;-66
2022/07/26 05:16:25;;;;;;;2.30;2.10;;;;;;;;;;5017887;28;20059;-64
2022/07/26 05:19:10;;;;;;;3.50;2.05;;;;;;;;;;5027470;28;20117;-65
2022/07/26 05:21:56;;;;;;;3.28;1.75;;;;;;;;;;5007592;28;20470;-66
2022/07/26 05:24:42;;;;;;;4.70;1.85;;;;;;;;;;5025977;28;20021;-63
2022/07/26 05:27:27;;;;;;;2.92;1.90;;;;;;;;;;5020573;28;20037;-66
2022/07/26 05:30:13;;;;;;;3.97;2.03;;;;;;;;;;5009389;28;20447;-66
2022/07/26 05:32:58;;;;;;;4.38;1.60;;;;;;;;;;5014820;28;20034;-66
2022/07/26 05:35:44;;;;;;;3.10;1.95;;;;;;;;;;5016765;28;20029;-65
2022/07/26 05:38:30;;;;;;;3.58;1.65;;;;;;;;;;5035986;28;20472;-67
2022/07/26 05:41:15;;;;;;;4.03;1.77;;;;;;;;;;5025633;28;20116;-67
2022/07/26 05:44:02;;;;;;;3.40;2.13;;;;;;;;;;5039616;28;20468;-68
2022/07/26 05:46:47;;;;;;;2.25;1.73;;;;;;;;;;5033976;28;20025;-68
2022/07/26 05:49:33;;;;;;;2.13;1.83;;;;;;;;;;5038710;28;20051;-69
2022/07/26 05:52:18;;;;;;;5.20;2.08;;;;;;;;;;5037821;28;20028;-69
2022/07/26 05:55:04;;;;;;;5.97;2.20;;;;;;;;;;5032150;28;20112;-69
2022/07/26 05:57:50;;;;;;;2.70;1.80;;;;;;;;;;5036748;28;20193;-68
2022/07/26 06:00:35;;;;;;;5.80;2.10;;;;;;;;;;5032202;28;20387;-67
2022/07/26 06:03:21;;;;;;;2.63;1.88;;;;;;;;;;5024053;28;20053;-77
2022/07/26 06:06:07;;;;;;;2.47;1.90;;;;;;;;;;5037310;28;20052;-77
2022/07/26 06:08:52;;;;;;;4.18;2.05;;;;;;;;;;5039881;28;20079;-70
2022/07/26 06:11:38;;;;;;;4.78;1.98;;;;;;;;;;5019205;28;20037;-75
2022/07/26 06:14:24;;;;;;;3.00;1.85;;;;;;;;;;5028962;28;20033;-76
2022/07/26 06:17:09;;;;;;;2.78;1.95;;;;;;;;;;5016653;28;20541;-63
2022/07/26 06:19:55;;;;;;;2.13;1.55;;;;;;;;;;5034302;28;20032;-65
2022/07/26 06:22:42;;;;;;;3.10;1.67;;;;;;;;;;5023229;28;20033;-65
2022/07/26 06:25:28;;;;;;;5.22;1.73;;;;;;;;;;5028982;28;20021;-69
2022/07/26 06:28:13;;;;;;;4.72;2.13;;;;;;;;;;5043352;28;20461;-69
2022/07/26 06:30:59;;;;;;;5.22;1.92;;;;;;;;;;5039933;28;20120;-68
2022/07/26 06:33:45;;;;;;;5.68;2.05;;;;;;;;;;5041978;28;20033;-69
2022/07/26 06:36:30;;;;;;;3.67;1.90;;;;;;;;;;5040223;28;20036;-66
2022/07/26 06:39:16;;;;;;;3.00;1.70;;;;;;;;;;5025598;28;20065;-73
2022/07/26 06:42:02;;;;;;;2.47;1.65;;;;;;;;;;5037107;28;20029;-76
2022/07/26 06:44:47;;;;;;;2.97;1.65;;;;;;;;;;5027560;28;20094;-74
2022/07/26 06:47:34;;;;;;;6.38;1.50;;;;;;;;;;5026267;28;20033;-74
2022/07/26 06:50:19;;;;;;;6.53;1.92;;;;;;;;;;5029208;28;20058;-78
2022/07/26 06:53:05;;;;;;;4.90;1.48;;;;;;;;;;5009237;28;20033;-78
2022/07/26 06:55:50;;;;;;;5.50;1.55;;;;;;;;;;5031811;28;20115;-65
2022/07/26 06:58:36;;;;;;;3.72;1.35;;;;;;;;;;5019413;28;20033;-68
2022/07/26 07:01:22;;;;;;;5.45;1.92;;;;;;;;;;4997911;28;20052;-73
2022/07/26 07:04:07;;;;;;;5.13;1.70;;;;;;;;;;5014346;28;20179;-69
2022/07/26 07:06:53;;;;;;;4.88;1.35;;;;;;;;;;5031410;28;20337;-73
2022/07/26 07:09:38;;;;;;;2.80;1.40;;;;;;;;;;5022352;28;20069;-73
2022/07/26 07:12:24;;;;;;;2.88;1.10;;;;;;;;;;5030124;28;20067;-78
2022/07/26 07:15:10;;;;;;;3.63;1.50;;;;;;;;;;4996037;28;20038;-71
2022/07/26 07:17:56;;;;;;;4.60;1.23;;;;;;;;;;5021606;28;20033;-75
2022/07/26 07:20:41;;;;;;;3.28;1.38;;;;;;;;;;5032324;28;20040;-75
2022/07/26 07:23:27;;;;;;;4.97;1.50;;;;;;;;;;5039357;28;20025;-77
2022/07/26 07:26:13;;;;;;;7.25;1.20;;;;;;;;;;5029199;28;20061;-75
2022/07/26 07:28:58;;;;;;;4.97;1.17;;;;;;;;;;5040209;28;20432;-76
2022/07/26 07:31:46;;;;;;;2.63;1.00;;;;;;;;;;5034122;28;20028;-76
2022/07/26 07:34:32;;;;;;;4.43;1.13;;;;;;;;;;5027301;28;20025;-74
2022/07/26 07:37:18;;;;;;;3.22;1.13;;;;;;;;;;5037917;28;20037;-73
2022/07/26 07:40:07;;;;;;;1.95;1.10;;;;;;;;;;5019076;28;20029;-73
2022/07/26 07:42:52;;;;;;;4.00;1.20;;;;;;;;;;5027734;28;20041;-72
2022/07/26 07:45:38;;;;;;;5.18;1.10;;;;;;;;;;5017447;28;20029;-72
2022/07/26 07:48:24;;;;;;;1.73;0.90;;;;;;;;;;5011086;28;20623;-74
2022/07/26 07:51:09;;;;;;;3.58;1.27;;;;;;;;;;5005717;28;20032;-71
2022/07/26 07:53:55;;;;;;;6.25;1.30;;;;;;;;;;4991591;28;20041;-80
2022/07/26 07:56:41;;;;;;;4.80;1.65;;;;;;;;;;5024149;28;20037;-80
2022/07/26 07:59:27;;;;;;;2.85;1.20;;;;;;;;;;5004171;28;20104;-81
2022/07/26 08:02:14;;;;;;;2.80;1.20;;;;;;;;;;5032598;28;20021;-80
2022/07/26 08:05:00;;;;;;;4.13;1.30;;;;;;;;;;5002434;28;20116;-82
2022/07/26 08:07:45;;;;;;;2.55;1.30;;;;;;;;;;4973992;28;20092;-77
2022/07/26 08:10:31;;;;;;;2.38;1.10;;;;;;;;;;4997892;28;20396;-79
2022/07/26 08:13:16;;;;;;;2.80;1.20;;;;;;;;;;5011484;28;20435;-74
2022/07/26 08:16:02;;;;;;;2.83;1.23;;;;;;;;;;5001043;28;20480;-76
2022/07/26 08:18:48;;;;;;;5.90;1.35;;;;;;;;;;5035229;28;20048;-74
2022/07/26 08:21:34;;;;;;;3.60;1.10;;;;;;;;;;5036491;28;20041;-74
2022/07/26 08:24:19;;;;;;;1.42;0.80;;;;;;;;;;5016761;28;20080;-74
2022/07/26 08:27:05;;;;;;;2.55;1.40;;;;;;;;;;5020182;28;20068;-76
2022/07/26 08:29:51;;;;;;;3.53;1.10;;;;;;;;;;5018892;28;20029;-71
2022/07/26 08:32:37;;;;;;;2.90;1.20;;;;;;;;;;5019463;28;20530;-71
2022/07/26 08:35:22;;;;;;;3.83;1.35;;;;;;;;;;5029168;28;20055;-72
2022/07/26 08:38:08;;;;;;;1.58;0.70;;;;;;;;;;5037656;28;20205;-72
2022/07/26 08:40:53;;;;;;;2.05;1.10;;;;;;;;;;5038853;28;20033;-72
2022/07/26 08:43:39;;;;;;;2.30;0.95;;;;;;;;;;5035047;28;20404;-70
2022/07/26 08:46:25;;;;;;;2.53;1.05;;;;;;;;;;5027055;28;20389;-76
2022/07/26 08:49:11;;;;;;;2.75;1.00;;;;;;;;;;5032370;28;20037;-78
2022/07/26 08:51:58;;;;;;;3.78;1.20;;;;;;;;;;5039842;28;20064;-78
2022/07/26 08:54:45;;;;;;;2.83;1.10;;;;;;;;;;5034479;28;20100;-80
2022/07/26 08:57:30;;;;;;;3.70;1.13;;;;;;;;;;5025877;28;20560;-79
2022/07/26 09:00:28;;;;;;;2.50;0.85;;;;;;;;;;5033160;28;20469;-80
2022/07/26 09:03:23;;;;;;;3.83;1.30;;;;;;;;;;5011561;28;20072;-77
2022/07/26 09:06:22;;;;;;;2.45;1.02;;;;;;;;;;5009843;28;20026;-80
2022/07/26 09:09:13;;;;;;;5.70;1.20;;;;;;;;;;5032562;28;20443;-69
2022/07/26 09:12:12;;;;;;;4.47;1.88;;;;;;;;;;5007962;28;20049;-69
2022/07/26 09:14:58;;;;;;;3.05;1.73;;;;;;;;;;4999709;28;20419;-69
2022/07/26 09:17:45;;;;;;;7.85;4.38;;;;;;;;;;5023238;28;20140;-69
2022/07/26 09:20:31;;;;;;;2.90;1.30;;;;;;;;;;5017034;28;20440;-70
2022/07/26 09:23:16;;;;;;;2.47;1.10;;;;;;;;;;5035370;28;20033;-65
2022/07/26 09:26:03;;;;;;;1.70;0.77;;;;;;;;;;5008216;28;20041;-63
2022/07/26 09:29:01;;;;;;;3.58;1.30;;;;;;;;;;5033278;28;20034;-64
2022/07/26 09:31:46;;;;;;;2.45;1.08;;;;;;;;;;5018457;28;20029;-63
2022/07/26 09:34:32;;;;;;;1.67;0.88;;;;;;;;;;5007921;28;20067;-63
2022/07/26 09:37:18;;;;;;;2.17;1.00;;;;;;;;;;5004736;28;20459;-63
2022/07/26 09:40:05;;;;;;;1.67;1.05;;;;;;;;;;5002985;28;20442;-68
2022/07/26 09:42:55;;;;;;;6.05;1.20;;;;;;;;;;5009686;28;20457;-67
2022/07/26 09:45:42;;;;;;;2.20;1.10;;;;;;;;;;5009016;28;20515;-67
2022/07/26 09:48:28;;;;;;;4.65;1.30;;;;;;;;;;4952440;28;20470;-68
2022/07/26 09:51:14;;;;;;;4.40;1.30;;;;;;;;;;4981455;28;20034;-69
2022/07/26 09:54:00;;;;;;;3.65;1.40;;;;;;;;;;4987897;28;20113;-68
2022/07/26 09:56:49;;;;;;;4.03;0.90;;;;;;;;;;5016633;28;20041;-70
2022/07/26 09:59:35;;;;;;;3.80;0.98;;;;;;;;;;5021556;28;20449;-66
2022/07/26 10:02:20;;;;;;;2.00;1.17;;;;;;;;;;5014433;28;20038;-68
2022/07/26 10:05:06;;;;;;;3.00;1.00;;;;;;;;;;5005849;28;20042;-68
2022/07/26 10:07:52;;;;;;;1.92;1.20;;;;;;;;;;5011659;28;20025;-69
2022/07/26 10:10:45;;;;;;;5.15;1.10;;;;;;;;;;5012793;28;20024;-68
2022/07/26 10:13:31;;;;;;;4.45;1.33;;;;;;;;;;4994204;28;20041;-70
2022/07/26 10:16:33;;;;;;;2.08;1.13;;;;;;;;;;5004596;28;20488;-64
2022/07/26 10:19:38;;;;;;;5.22;1.45;;;;;;;;;;4998837;28;20080;-68
2022/07/26 10:22:24;;;;;;;4.03;1.08;;;;;;;;;;4997654;28;20037;-64
2022/07/26 10:25:16;;;;;;;4.05;1.00;;;;;;;;;;4994456;28;20097;-62
2022/07/26 10:28:01;;;;;;;3.30;1.10;;;;;;;;;;4990954;28;20465;-62
2022/07/26 10:30:47;;;;;;;4.53;1.27;;;;;;;;;;4995374;28;20025;-65
2022/07/26 10:33:40;;;;;;;2.30;1.25;;;;;;;;;;4997512;28;20054;-62
2022/07/26 10:36:31;;;;;;;6.32;1.30;;;;;;;;;;5001591;28;20076;-64
2022/07/26 10:39:21;;;;;;;2.55;1.10;;;;;;;;;;5005052;28;20392;-63
2022/07/26 10:42:07;;;;;;;1.40;1.05;;;;;;;;;;4999808;28;20468;-64
2022/07/26 10:45:13;;;;;;;2.03;1.23;;;;;;;;;;5007395;28;20026;-64
2022/07/26 10:48:10;;;;;;;6.55;1.00;;;;;;;;;;5002243;28;20038;-64
2022/07/26 10:50:55;;;;;;;3.58;0.98;;;;;;;;;;5011387;28;20123;-64
2022/07/26 10:53:41;;;;;;;2.25;1.15;;;;;;;;;;5015061;28;20076;-65
2022/07/26 10:56:28;;;;;;;1.23;0.95;;;;;;;;;;5003654;28;20046;-69
2022/07/26 10:59:13;;;;;;;1.25;1.00;;;;;;;;;;4987377;28;20031;-70
2022/07/26 11:01:59;;;;;;;4.50;0.98;;;;;;;;;;4968270;28;20043;-72
2022/07/26 11:04:44;;;;;;;5.97;1.30;;;;;;;;;;4985053;28;20556;-69
2022/07/26 11:07:30;;;;;;;2.15;1.10;;;;;;;;;;4978423;28;20532;-70
2022/07/26 11:10:21;;;;;;;1.63;1.10;;;;;;;;;;4973663;28;20053;-70
2022/07/26 11:13:07;;;;;;;1.95;1.10;;;;;;;;;;4990181;28;20029;-64
2022/07/26 11:15:59;;;;;;;3.25;1.17;;;;;;;;;;4984200;28;20110;-67
2022/07/26 11:18:44;;;;;;;2.42;1.20;;;;;;;;;;4991897;28;20037;-68
2022/07/26 11:21:30;;;;;;;5.38;1.52;;;;;;;;;;4986818;28;20520;-72
2022/07/26 11:24:16;;;;;;;4.57;1.17;;;;;;;;;;4989423;28;20479;-63
2022/07/26 11:27:02;;;;;;;3.65;1.23;;;;;;;;;;5020656;28;20032;-62
2022/07/26 11:29:48;;;;;;;4.85;1.00;;;;;;;;;;5006589;28;20053;-64
2022/07/26 11:32:33;;;;;;;1.48;0.77;;;;;;;;;;5012753;28;20022;-64
2022/07/26 11:35:19;;;;;;;0.98;0.77;;;;;;;;;;4995509;28;20038;-63
2022/07/26 11:38:07;;;;;;;2.47;1.05;;;;;;;;;;4990295;28;20172;-62
2022/07/26 11:40:52;;;;;;;2.67;1.00;;;;;;;;;;4993579;28;20064;-64
2022/07/26 11:43:38;;;;;;;2.15;1.23;;;;;;;;;;4971225;28;20026;-63
2022/07/26 11:46:37;;;;;;;2.50;1.00;;;;;;;;;;4990763;28;20055;-62
2022/07/26 11:49:22;;;;;;;;;;;;;;;;;;4988288;28;20113;-77
2022/07/26 11:52:08;;;;;;;2.35;1.10;;;;;;;;;;4997111;28;19913;-71
2022/07/26 11:54:54;;;;;;;1.77;1.13;;;;;;;;;;4981978;28;20504;-70
2022/07/26 11:57:39;;;;;;;2.28;0.80;;;;;;;;;;4988694;28;20484;-70
2022/07/26 12:00:25;;;;;;;2.50;0.85;;;;;;;;;;4968979;28;20035;-71
2022/07/26 12:03:11;;;;;;;3.13;1.27;;;;;;;;;;4967163;28;20064;-70
2022/07/26 12:06:04;;;;;;;1.15;0.95;;;;;;;;;;4975685;28;20089;-71
2022/07/26 12:08:56;;;;;;;2.60;0.88;;;;;;;;;;4972144;28;20038;-60
2022/07/26 12:11:46;;;;;;;4.10;1.33;;;;;;;;;;4994990;28;33889;-66
2022/07/26 12:14:32;;;;;;;1.48;0.93;;;;;;;;;;4980864;28;20069;-67
2022/07/26 12:17:18;;;;;;;2.13;1.00;;;;;;;;;;5001793;28;20036;-65
2022/07/26 12:20:14;;;;;;;2.75;1.00;;;;;;;;;;5008214;28;20046;-67
2022/07/26 12:23:04;;;;;;;1.88;1.02;;;;;;;;;;4996689;28;20441;-65
2022/07/26 12:25:50;;;;;;;1.35;0.80;;;;;;;;;;4980643;28;20062;-71
2022/07/26 12:28:39;;;;;;;2.83;1.00;;;;;;;;;;4987376;28;20029;-79
2022/07/26 12:31:25;;;;;;;;;;;;;;;;;;4999844;28;20484;-78
2022/07/26 12:34:10;;;;;;;1.75;1.00;;;;;;;;;;5005196;28;20299;-78
2022/07/26 12:37:06;;;;;;;1.70;0.88;;;;;;;;;;4998643;28;20477;-78
2022/07/26 12:39:58;;;;;;;3.47;1.23;;;;;;;;;;4983334;28;20038;-77
2022/07/26 12:42:50;;;;;;;2.33;1.00;;;;;;;;;;5013273;28;20030;-76
2022/07/26 12:45:37;;;;;;;2.63;0.90;;;;;;;;;;4976336;28;20489;-77
2022/07/26 12:48:23;;;;;;;1.80;1.10;;;;;;;;;;4994790;28;20034;-76
2022/07/26 12:51:08;;;;;;;3.60;0.93;;;;;;;;;;4988575;28;20048;-75
2022/07/26 12:53:54;;;;;;;3.40;0.80;;;;;;;;;;4997289;28;20054;-78
2022/07/26 12:56:39;;;;;;;1.58;0.88;;;;;;;;;;4970650;28;20027;-77
2022/07/26 12:59:25;;;;;;;1.08;0.80;;;;;;;;;;4993246;28;20093;-78
2022/07/26 13:02:11;;;;;;;1.00;0.80;;;;;;;;;;4981124;28;20058;-73
2022/07/26 13:04:57;;;;;;;2.40;1.13;;;;;;;;;;4963126;28;20109;-78
2022/07/26 13:07:42;;;;;;;1.65;1.08;;;;;;;;;;5015001;28;20362;-70
2022/07/26 13:10:28;;;;;;;2.47;0.93;;;;;;;;;;4993281;28;20120;-71
2022/07/26 13:13:14;;;;;;;1.13;0.90;;;;;;;;;;4954795;28;20093;-70
2022/07/26 13:15:59;;;;;;;2.13;1.00;;;;;;;;;;4966987;28;20478;-69
2022/07/26 13:18:45;;;;;;;4.40;1.40;;;;;;;;;;4961870;28;20034;-72
2022/07/26 13:21:30;;;;;;;2.75;1.02;;;;;;;;;;4981316;28;20493;-77
2022/07/26 13:24:16;;;;;;;3.63;1.10;;;;;;;;;;5005968;28;20402;-70
2022/07/26 13:27:02;;;;;;;3.28;1.00;;;;;;;;;;4983922;28;20034;-72
2022/07/26 13:29:47;;;;;;;1.52;1.02;;;;;;;;;;4969022;28;20074;-73
2022/07/26 13:32:33;;;;;;;1.92;0.93;;;;;;;;;;4967043;28;20109;-71
2022/07/26 13:35:18;;;;;;;2.03;0.80;;;;;;;;;;4951600;28;20027;-70
2022/07/26 13:38:04;;;;;;;1.40;0.80;;;;;;;;;;4936347;28;20386;-71
2022/07/26 13:40:50;;;;;;;5.22;1.00;;;;;;;;;;4979679;28;20156;-75
2022/07/26 13:43:35;;;;;;;0.93;0.80;;;;;;;;;;4991752;28;20042;-71
2022/07/26 13:46:22;;;;;;;0.98;0.70;;;;;;;;;;4986912;28;20034;-70
2022/07/26 13:49:08;;;;;;;0.90;0.80;;;;;;;;;;4953614;28;20042;-70
2022/07/26 13:51:56;;;;;;;2.75;1.02;;;;;;;;;;4946237;28;20442;-72
2022/07/26 13:54:42;;;;;;;3.03;0.70;;;;;;;;;;4948743;28;20027;-71
2022/07/26 13:57:27;;;;;;;2.17;1.00;;;;;;;;;;4982149;28;20054;-76
2022/07/26 14:00:13;;;;;;;5.15;1.20;;;;;;;;;;5029717;28;20059;-74
2022/07/26 14:02:59;;;;;;;1.20;0.90;;;;;;;;;;5016244;28;27699;-75
2022/07/26 14:05:45;;;;;;;2.70;0.88;;;;;;;;;;5012893;28;20398;-75
2022/07/26 14:08:30;;;;;;;2.50;0.90;;;;;;;;;;4960058;28;20049;-74
2022/07/26 14:11:16;;;;;;;1.20;0.70;;;;;;;;;;4993667;28;20160;-75
2022/07/26 14:14:02;;;;;;;2.75;1.33;;;;;;;;;;4978718;28;20044;-74
2022/07/26 14:16:48;;;;;;;2.40;1.10;;;;;;;;;;4996472;28;20108;-74
2022/07/26 14:19:35;;;;;;;3.28;0.90;;;;;;;;;;4984344;28;20029;-78
2022/07/26 14:22:21;;;;;;;2.47;1.00;;;;;;;;;;4992194;28;20100;-77
2022/07/26 14:25:06;;;;;;;2.72;1.05;;;;;;;;;;4996814;28;20050;-78
2022/07/26 14:27:53;;;;;;;1.38;0.90;;;;;;;;;;4973565;28;20040;-78
2022/07/26 14:30:38;;;;;;;1.00;0.90;;;;;;;;;;4989699;28;20033;-77
2022/07/26 14:33:24;;;;;;;1.98;0.95;;;;;;;;;;4982826;28;20030;-78
2022/07/26 14:36:12;;;;;;;1.98;1.00;;;;;;;;;;4985897;28;20069;-79
2022/07/26 14:38:57;;;;;;;1.30;0.80;;;;;;;;;;4995678;28;20041;-78
2022/07/26 14:41:43;;;;;;;2.33;0.90;;;;;;;;;;5001142;28;20032;-75
2022/07/26 14:44:29;;;;;;;2.22;0.88;;;;;;;;;;4980374;28;20034;-74
2022/07/26 14:47:14;;;;;;;1.98;0.90;;;;;;;;;;4971686;28;24440;-75
2022/07/26 14:50:00;;;;;;;4.15;0.90;;;;;;;;;;4911360;29;20443;-75
2022/07/26 14:52:46;;;;;;;2.45;1.02;;;;;;;;;;4919908;28;20051;-75
2022/07/26 14:55:32;;;;;;;1.23;0.90;;;;;;;;;;4935137;28;20058;-78
2022/07/26 14:58:18;;;;;;;2.63;0.90;;;;;;;;;;4946599;28;20553;-75
2022/07/26 15:01:03;;;;;;;0.73;0.73;;;;;;;;;;4920850;28;20024;-77
2022/07/26 15:03:49;;;;;;;3.00;1.70;;;;;;;;;;4918202;28;20042;-74
2022/07/26 15:06:35;;;;;;;1.65;0.98;;;;;;;;;;4949143;28;20452;-74
2022/07/26 15:09:20;;;;;;;2.53;0.90;;;;;;;;;;4941557;28;20470;-75
2022/07/26 15:12:06;;;;;;;1.40;0.80;;;;;;;;;;4979730;28;20089;-75
2022/07/26 15:14:52;;;;;;;4.40;0.80;;;;;;;;;;4977787;28;20040;-71
2022/07/26 15:17:37;;;;;;;2.25;1.05;;;;;;;;;;4963656;28;20038;-72
2022/07/26 15:20:23;;;;;;;2.40;1.10;;;;;;;;;;5002734;28;20033;-71
2022/07/26 15:23:09;;;;;;;2.80;1.10;;;;;;;;;;4989456;28;20048;-72
2022/07/26 15:25:55;;;;;;;2.00;0.90;;;;;;;;;;4991701;28;20041;-73
2022/07/26 15:28:40;;;;;;;4.65;1.15;;;;;;;;;;4947811;28;20031;-77
2022/07/26 15:31:26;;;;;;;3.40;1.75;;;;;;;;;;4989222;28;20293;-72
2022/07/26 15:34:11;;;;;;;1.55;0.75;;;;;;;;;;4998186;28;20056;-77
2022/07/26 15:36:57;;;;;;;2.42;1.20;;;;;;;;;;4977996;28;20449;-78
2022/07/26 15:39:43;;;;;;;3.97;1.10;;;;;;;;;;4981639;28;20037;-77
2022/07/26 15:42:29;;;;;;;2.72;1.13;;;;;;;;;;5006592;28;20547;-75
2022/07/26 15:45:15;;;;;;;2.35;1.25;;;;;;;;;;4995983;28;20510;-78
2022/07/26 15:48:03;;;;;;;1.75;0.95;;;;;;;;;;5012739;28;20670;-71
2022/07/26 15:50:49;;;;;;;3.30;0.95;;;;;;;;;;4999778;28;20495;-76
2022/07/26 15:53:37;;;;;;;1.85;1.02;;;;;;;;;;5014786;28;20065;-77
2022/07/26 15:56:24;;;;;;;2.90;1.10;;;;;;;;;;5033553;28;20033;-78
2022/07/26 15:59:10;;;;;;;1.95;1.00;;;;;;;;;;5004845;28;20391;-77
2022/07/26 16:01:56;;;;;;;1.35;0.75;;;;;;;;;;5029254;28;20064;-77
2022/07/26 16:04:42;;;;;;;1.08;0.70;;;;;;;;;;5009421;28;20032;-76
2022/07/26 16:07:27;;;;;;;2.95;1.30;;;;;;;;;;5036562;28;20137;-71
2022/07/26 16:10:13;;;;;;;1.63;1.00;;;;;;;;;;5026202;28;20017;-71
2022/07/26 16:13:00;;;;;;;2.90;0.90;;;;;;;;;;5027969;28;20396;-70
2022/07/26 16:15:45;;;;;;;3.00;1.25;;;;;;;;;;5020795;28;20033;-72
2022/07/26 16:18:31;;;;;;;1.58;0.95;;;;;;;;;;5000295;28;21293;-72
2022/07/26 16:21:17;;;;;;;2.17;0.80;;;;;;;;;;4985633;28;20069;-73
2022/07/26 16:24:02;;;;;;;2.08;1.08;;;;;;;;;;5012779;28;20124;-73
2022/07/26 16:26:50;;;;;;;1.23;0.88;;;;;;;;;;5011007;28;20041;-77
2022/07/26 16:29:35;;;;;;;1.45;1.00;;;;;;;;;;4990666;28;20030;-76
2022/07/26 16:32:21;;;;;;;1.17;1.00;;;;;;;;;;4982971;28;20023;-77
2022/07/26 16:35:07;;;;;;;1.27;0.88;;;;;;;;;;4960820;28;20392;-75
2022/07/26 16:37:53;;;;;;;4.90;1.00;;;;;;;;;;4934949;28;20037;-75
2022/07/26 16:40:38;;;;;;;1.48;1.20;;;;;;;;;;4969717;28;20030;-77